Allwood, New Jersey
Current Conditions -  °F | °C
As of 12:51 AM on Thursday 27 Nov 2014 (Local Time) from KTEB Reporting Station
Overcast Overcast  
Wind Chill: -1°   Ceiling: 7000
Heat Index:   Visibility: 10mi
Dew Point: -1°   Wind: 8mph
Humidity: 79%   Direction: 350°N
Pressure: 29.85"   Gusts: NA
Location:  40.8469°N, 74.1593°W
Report Text: KTEB 270551Z 35007KT 10SM OVC070 02/M01 A2985 RMK AO2 RAE40 SLP108 4/001 P0000 60007 T00221011 10022 20011 53015 $
Loading
Personal Weather Stations






























Interactive Weather Map New forecast layout! Learn more

10-Day Weather Forecast

Advertisements
Track Severe Weather on mobile